Startpagina
METAR-TAF:

METAR-TAF

Vliegvelden :

Mendoza, Argentinië

breedte: 32-50S, lengte: 068-47W, hoogte: 705 m

Actueel weer

Dit bericht is 57 minuten geleden gemaakt, om 15:00 UTC
Wind 9 kt uit het oostzuidoosten
Temperatuur 21°C
Vochtigheid 21%
Druk 1019 hPa
Zicht 10 km of meer
geen wolken onder 1500 m en geen cumulonimbus

METAR: SAME 121500Z 11009KT CAVOK 21/M02 Q1019

Tijdstip: 12:57 (15:57 UTC)

Verwachting

Dit bericht is 4 uur en het 57 minuten geleden gemaakt, om 11:00 UTC
Verwachting geldig van 12 om 12 UTC tot 13 om 12 UTC
Wind 10 kt uit het zuidzuidoosten
Zicht 10 km of meer
geen wolken onder 1500 m en geen cumulonimbus
Wijzigt naar
van 12 om 14 UTC tot 12 om 16 UTC
Wind 10 kt uit het noordoosten
Wijzigt naar
van 13 om 00 UTC tot 13 om 02 UTC
Wind 3 kt uit variabele richting

TAF: SAME 121100Z 1212/1312 16010KT CAVOK TX28/1220Z TN16/1310Z BECMG 1214/1216 05010KT BECMG 1300/1302 VRB03KT

Waarnemingen en weersverwachtingen van meer dan 4000 vliegvelden (METAR en TAF).

De beschikbare stations zijn de gele en rode punten op de kaart.

Ga met uw muis naar het station om de naam te zien.

Klik dan om waarnemingen en weersverwachtingen te zien.

kaart wijzigen: klik op de groene knoppen met een zwart kruis om in te zoomen, op de groene knop met een streepje om uit te zoomen of op de groene pijlen voor aangrenzende kaarten.


METAR-TAF: